Terminal Aerodrome Forecast
Issued by NWS

Home | Current Version | Previous Version | Text Only | Print | Product List | Glossary On
Versions: 1 2 3 4 5 6 7 8 9 10 11 12 13 14 15 16
433
FTUS45 KABQ 091432 AAA
TAFTCC
TAF AMD
KTCC 091432Z 0915/1012 22015KT P6SM SCT015
     FM091600 23016G25KT P6SM SCT200
     FM100100 24010KT P6SM BKN200=

USA.gov is the U.S. government's official web portal to all federal, state and local government web resources and services.